ENDU

Bardufoss Airport

Målselv, Norway
METAR ENDU 180650Z AUTO 00000KT 9999 NCD M27/M30 Q1022 RMK WIND 1100FT 14004KT WIND 2200FT 15007KT
Observed Flight Rules
Feb-18 @ 06:50 UTC (25 minutes ago) Visual Flight Rules
Wind Visibility Clouds
Calm 10,000+ meters
  • Clear skies
Temperatures Readings
Current -27°C / -17°F
Dewpoint -30°C / -22°F
Humidity 76%
Altimeter 30.18" Hg
Pressure 1022 hPa
Elevation 79
METAR ENDU 180650Z AUTO 00000KT 9999 NCD M27/M30 Q1022 RMK WIND 1100FT 14004KT WIND 2200FT 15007KT
Observed Flight Rules
Feb-18 @ 06:50 UTC
(25 minutes ago)
VFR
Wind Visibility
Calm 10,000+ meters
Clouds
  • Clear skies
Temperature Dewpoint
-27°C / -17°F -30°C / -22°F
Humidity Altimeter Pressure
76% 30.18" Hg 1022 hPa